createdAt,value
2023-05-25T00:01:59.763Z,5.80
2023-05-25T00:04:30.452Z,5.35
2023-05-25T00:06:58.089Z,5.40
2023-05-25T00:09:25.845Z,5.90
2023-05-25T00:11:53.573Z,5.35
2023-05-25T00:14:21.372Z,5.93
2023-05-25T00:16:49.015Z,5.40
2023-05-25T00:19:18.598Z,6.20
2023-05-25T00:21:48.424Z,6.18
2023-05-25T00:24:15.989Z,5.78
2023-05-25T00:26:43.737Z,5.95
2023-05-25T00:29:11.199Z,7.03
2023-05-25T00:31:39.279Z,6.90
2023-05-25T00:34:07.094Z,6.53
2023-05-25T00:36:34.542Z,6.40
2023-05-25T00:39:01.986Z,6.18
2023-05-25T00:41:29.796Z,6.05
2023-05-25T00:43:57.341Z,6.05
2023-05-25T00:46:25.255Z,6.95
2023-05-25T00:48:53.377Z,6.25
2023-05-25T00:51:21.249Z,6.03
2023-05-25T00:53:48.686Z,6.12
2023-05-25T00:56:23.113Z,6.37
2023-05-25T00:58:53.035Z,6.25
2023-05-25T01:01:22.084Z,6.05
2023-05-25T01:03:54.316Z,6.60
2023-05-25T01:06:22.935Z,6.43
2023-05-25T01:08:54.402Z,6.40
2023-05-25T01:11:26.704Z,6.35
2023-05-25T01:13:54.524Z,5.90
2023-05-25T01:16:22.507Z,5.60
2023-05-25T01:18:52.656Z,6.15
2023-05-25T01:21:42.137Z,5.75
2023-05-25T01:24:30.914Z,5.50
2023-05-25T01:27:02.142Z,5.70
2023-05-25T01:29:30.047Z,6.87
2023-05-25T01:31:57.561Z,6.65
2023-05-25T01:34:25.154Z,6.12
2023-05-25T01:36:52.870Z,5.82
2023-05-25T01:39:23.808Z,6.22
2023-05-25T01:41:51.287Z,6.18
2023-05-25T01:44:18.973Z,6.87
2023-05-25T01:46:46.626Z,6.50
2023-05-25T01:49:43.714Z,6.43
2023-05-25T01:52:28.800Z,6.72
2023-05-25T01:55:11.751Z,6.37
2023-05-25T01:57:42.887Z,6.05
2023-05-25T02:00:11.104Z,6.97
2023-05-25T02:02:41.989Z,6.28
2023-05-25T02:05:11.096Z,7.27
2023-05-25T02:07:39.007Z,6.25
2023-05-25T02:10:06.890Z,6.87
2023-05-25T02:12:34.656Z,6.30
2023-05-25T02:15:02.177Z,6.82
2023-05-25T02:17:31.471Z,6.43
2023-05-25T02:19:59.481Z,6.53
2023-05-25T02:22:27.162Z,6.82
2023-05-25T02:24:54.622Z,6.32
2023-05-25T02:27:23.096Z,6.12
2023-05-25T02:29:50.756Z,6.18
2023-05-25T02:32:18.193Z,6.47
2023-05-25T02:34:47.072Z,7.43
2023-05-25T02:37:14.639Z,6.80
2023-05-25T02:39:42.474Z,6.50
2023-05-25T02:42:10.214Z,5.93
2023-05-25T02:44:37.643Z,6.45
2023-05-25T02:47:06.787Z,6.55
2023-05-25T02:49:34.887Z,6.22
2023-05-25T02:52:02.441Z,6.50
2023-05-25T02:54:29.914Z,6.37
2023-05-25T02:56:58.423Z,6.28
2023-05-25T02:59:26.046Z,6.62
2023-05-25T03:01:53.506Z,6.82
2023-05-25T03:04:21.986Z,6.72
2023-05-25T03:06:49.408Z,6.10
2023-05-25T03:09:17.117Z,6.50
2023-05-25T03:11:45.810Z,6.40
2023-05-25T03:14:13.622Z,6.72
2023-05-25T03:16:41.855Z,6.37
2023-05-25T03:19:10.682Z,6.72
2023-05-25T03:21:38.540Z,5.97
2023-05-25T03:24:06.717Z,6.65
2023-05-25T03:26:34.813Z,6.22
2023-05-25T03:29:03.045Z,6.53
2023-05-25T03:31:30.520Z,6.68
2023-05-25T03:33:58.382Z,6.45
2023-05-25T03:36:30.891Z,6.45
2023-05-25T03:38:58.700Z,7.18
2023-05-25T03:41:27.030Z,6.28
2023-05-25T03:43:54.562Z,5.97
2023-05-25T03:46:22.333Z,5.80
2023-05-25T03:48:49.779Z,5.20
2023-05-25T03:51:17.213Z,5.20
2023-05-25T03:53:45.832Z,4.85
2023-05-25T03:56:13.304Z,5.03
2023-05-25T03:58:40.781Z,5.50
2023-05-25T04:01:10.373Z,4.60
2023-05-25T04:03:38.257Z,4.80
2023-05-25T04:06:05.982Z,4.80
2023-05-25T04:08:34.053Z,5.03
2023-05-25T04:11:02.121Z,5.65
2023-05-25T04:13:29.534Z,5.12
2023-05-25T04:15:57.069Z,5.25
2023-05-25T04:18:26.121Z,4.67
2023-05-25T04:20:55.551Z,4.82
2023-05-25T04:23:23.396Z,5.47
2023-05-25T04:25:51.905Z,5.37
2023-05-25T04:28:19.514Z,5.62
2023-05-25T04:30:48.091Z,4.70
2023-05-25T04:33:18.041Z,5.10
2023-05-25T04:35:47.062Z,5.25
2023-05-25T04:38:17.669Z,5.22
2023-05-25T04:40:46.505Z,5.70
2023-05-25T04:43:18.121Z,5.55
2023-05-25T04:45:47.397Z,5.43
2023-05-25T04:48:15.319Z,6.20
2023-05-25T04:50:43.124Z,5.57
2023-05-25T04:53:11.053Z,5.78
2023-05-25T04:55:38.623Z,5.55
2023-05-25T04:58:06.136Z,4.97
2023-05-25T05:00:34.526Z,6.03
2023-05-25T05:03:02.716Z,5.65
2023-05-25T05:05:30.857Z,5.93
2023-05-25T05:07:59.999Z,5.65
2023-05-25T05:10:27.796Z,6.47
2023-05-25T05:12:56.036Z,6.87
2023-05-25T05:15:23.945Z,6.30
2023-05-25T05:17:51.596Z,6.85
2023-05-25T05:20:19.314Z,5.70
2023-05-25T05:22:47.709Z,6.60
2023-05-25T05:25:15.291Z,6.50
2023-05-25T05:27:42.761Z,6.32
2023-05-25T05:30:12.102Z,6.72
2023-05-25T05:32:41.204Z,6.40
2023-05-25T05:35:09.457Z,6.20
2023-05-25T05:37:38.611Z,6.15
2023-05-25T05:40:07.161Z,6.05
2023-05-25T05:42:34.913Z,6.37
2023-05-25T05:45:02.905Z,5.62
2023-05-25T05:47:31.166Z,5.50
2023-05-25T05:49:58.805Z,5.20
2023-05-25T05:52:26.645Z,6.03
2023-05-25T05:54:54.264Z,6.78
2023-05-25T05:57:22.005Z,6.75
2023-05-25T05:59:49.840Z,6.30
2023-05-25T06:02:17.534Z,6.00
2023-05-25T06:04:45.677Z,6.00
2023-05-25T06:07:13.323Z,5.40
2023-05-25T06:09:41.448Z,5.87
2023-05-25T06:12:09.475Z,6.28
2023-05-25T06:14:36.991Z,6.75
2023-05-25T06:17:04.651Z,6.75
2023-05-25T06:19:32.448Z,7.12
2023-05-25T06:22:00.088Z,6.05
2023-05-25T06:24:27.567Z,6.45
2023-05-25T06:26:55.458Z,6.32
2023-05-25T06:29:22.914Z,6.75
2023-05-25T06:31:50.435Z,6.72
2023-05-25T06:34:18.508Z,6.70
2023-05-25T06:36:46.867Z,7.07
2023-05-25T06:39:14.844Z,6.30
2023-05-25T06:41:43.676Z,7.15
2023-05-25T06:44:11.158Z,7.28
2023-05-25T06:46:40.208Z,7.93
2023-05-25T06:49:09.182Z,8.00
2023-05-25T06:51:37.275Z,7.57
2023-05-25T06:54:04.735Z,7.30
2023-05-25T06:56:32.470Z,7.68
2023-05-25T06:59:00.038Z,7.25
2023-05-25T07:01:28.001Z,7.95
2023-05-25T07:03:55.867Z,7.05
2023-05-25T07:06:23.347Z,7.15
2023-05-25T07:08:50.871Z,7.53
2023-05-25T07:11:22.002Z,7.47
2023-05-25T07:13:49.498Z,7.45
2023-05-25T07:16:17.031Z,7.60
2023-05-25T07:18:44.810Z,6.62
2023-05-25T07:21:12.330Z,7.10
2023-05-25T07:23:42.826Z,7.75
2023-05-25T07:26:10.569Z,7.80
2023-05-25T07:28:38.077Z,7.35
2023-05-25T07:31:05.583Z,6.95
2023-05-25T07:33:33.406Z,7.60
2023-05-25T07:36:00.840Z,7.10
2023-05-25T07:38:28.318Z,6.65
2023-05-25T07:40:56.264Z,7.32
2023-05-25T07:43:24.820Z,7.65
2023-05-25T07:45:52.274Z,7.53
2023-05-25T07:48:20.000Z,7.65
2023-05-25T07:50:47.489Z,7.93
2023-05-25T07:53:14.969Z,7.50
2023-05-25T07:55:43.084Z,7.45
2023-05-25T07:58:10.958Z,7.90
2023-05-25T08:00:38.449Z,6.95
2023-05-25T08:03:06.339Z,7.87
2023-05-25T08:05:33.891Z,7.35
2023-05-25T08:08:01.665Z,6.93
2023-05-25T08:10:32.341Z,7.55
2023-05-25T08:12:59.926Z,7.53
2023-05-25T08:15:27.429Z,7.65
2023-05-25T08:17:56.674Z,7.90
2023-05-25T08:20:25.965Z,7.85
2023-05-25T08:22:53.703Z,7.85
2023-05-25T08:25:21.968Z,7.50
2023-05-25T08:27:49.460Z,7.78
2023-05-25T08:30:16.939Z,7.55
2023-05-25T08:32:45.227Z,7.28
2023-05-25T08:35:14.315Z,7.32
2023-05-25T08:37:43.476Z,7.53
2023-05-25T08:40:15.257Z,7.62
2023-05-25T08:42:45.814Z,8.00
2023-05-25T08:45:22.986Z,7.43
2023-05-25T08:48:01.082Z,6.97
2023-05-25T08:50:28.872Z,7.22
2023-05-25T08:52:56.363Z,6.62
2023-05-25T08:55:23.894Z,7.25
2023-05-25T08:57:56.012Z,7.72
2023-05-25T09:00:29.276Z,7.00
2023-05-25T09:03:25.482Z,6.85
2023-05-25T09:05:53.000Z,7.65
2023-05-25T09:08:23.037Z,7.60
2023-05-25T09:10:50.541Z,7.25
2023-05-25T09:13:22.046Z,7.78
2023-05-25T09:15:50.930Z,7.53
2023-05-25T09:18:18.480Z,7.35
2023-05-25T09:20:47.849Z,6.97
2023-05-25T09:23:16.176Z,7.37
2023-05-25T09:25:44.635Z,8.38
2023-05-25T09:30:42.902Z,7.93
2023-05-25T09:33:13.617Z,9.48
2023-05-25T09:35:41.160Z,8.10
2023-05-25T09:38:09.168Z,8.15
2023-05-25T09:40:38.042Z,7.32
2023-05-25T09:43:05.540Z,7.78
2023-05-25T09:45:33.334Z,8.18
2023-05-25T09:48:01.144Z,7.10
2023-05-25T09:50:29.368Z,7.85
2023-05-25T09:52:59.871Z,8.88
2023-05-25T09:55:40.347Z,8.27
2023-05-25T09:58:18.207Z,8.13
2023-05-25T10:00:46.459Z,8.38
2023-05-25T10:03:15.853Z,8.27
2023-05-25T10:05:43.346Z,8.55
2023-05-25T10:08:10.909Z,7.95
2023-05-25T10:10:39.104Z,8.27
2023-05-25T10:13:06.618Z,8.20
2023-05-25T10:15:34.074Z,7.85
2023-05-25T10:18:01.952Z,8.13
2023-05-25T10:20:30.524Z,7.30
2023-05-25T10:23:13.317Z,7.32
2023-05-25T10:25:47.219Z,7.47
2023-05-25T10:28:17.630Z,7.32
2023-05-25T10:30:45.758Z,8.02
2023-05-25T10:33:13.311Z,7.47
2023-05-25T10:35:56.125Z,7.40
2023-05-25T10:38:29.138Z,7.60
2023-05-25T10:40:56.602Z,7.30
2023-05-25T10:43:24.049Z,6.72
2023-05-25T10:45:51.788Z,7.70
2023-05-25T10:48:19.265Z,7.30
2023-05-25T10:50:52.579Z,7.37
2023-05-25T10:53:21.209Z,7.35
2023-05-25T10:55:51.959Z,6.72
2023-05-25T10:58:21.381Z,7.00
2023-05-25T11:01:04.103Z,6.83
2023-05-25T11:03:44.038Z,6.45
2023-05-25T11:06:12.467Z,7.32
2023-05-25T11:08:55.391Z,6.50
2023-05-25T11:11:26.810Z,7.10
2023-05-25T11:13:54.584Z,6.18
2023-05-25T11:16:35.972Z,6.55
2023-05-25T11:19:04.230Z,6.60
2023-05-25T11:21:35.030Z,6.18
2023-05-25T11:24:04.078Z,6.95
2023-05-25T11:26:33.339Z,6.85
2023-05-25T11:29:01.997Z,6.05
2023-05-25T11:31:36.031Z,6.35
2023-05-25T11:34:06.762Z,7.30
2023-05-25T11:36:36.975Z,6.43
2023-05-25T11:39:11.635Z,6.20
2023-05-25T11:41:58.636Z,6.40
2023-05-25T11:44:28.448Z,6.53
2023-05-25T11:47:01.727Z,6.65
2023-05-25T11:49:29.470Z,7.85
2023-05-25T11:51:57.501Z,7.18
2023-05-25T11:54:27.907Z,6.60
2023-05-25T11:56:59.333Z,6.80
2023-05-25T11:59:29.802Z,6.95
2023-05-25T12:01:59.882Z,6.65
2023-05-25T12:04:28.346Z,6.53
2023-05-25T12:07:02.544Z,6.47
2023-05-25T12:09:30.484Z,6.20
2023-05-25T12:11:58.050Z,6.50
2023-05-25T12:14:25.833Z,6.62
2023-05-25T12:16:53.716Z,6.15
2023-05-25T12:19:21.586Z,6.55
2023-05-25T12:21:51.383Z,6.10
2023-05-25T12:24:19.195Z,6.43
2023-05-25T12:26:50.690Z,6.03
2023-05-25T12:29:18.214Z,6.28
2023-05-25T12:31:45.944Z,6.32
2023-05-25T12:34:17.650Z,6.30
2023-05-25T12:36:45.015Z,6.15
2023-05-25T12:39:16.583Z,5.37
2023-05-25T12:41:47.994Z,5.60
2023-05-25T12:44:23.118Z,5.57
2023-05-25T12:46:54.472Z,5.95
2023-05-25T12:49:34.838Z,5.70
2023-05-25T12:54:44.923Z,6.43
2023-05-25T12:57:16.519Z,6.22
2023-05-25T12:59:45.464Z,5.22
2023-05-25T13:02:13.848Z,5.80
2023-05-25T13:04:41.685Z,6.30
2023-05-25T13:07:09.975Z,5.25
2023-05-25T13:09:37.708Z,5.70
2023-05-25T13:12:06.252Z,5.90
2023-05-25T13:14:34.028Z,6.22
2023-05-25T13:17:01.539Z,6.22
2023-05-25T13:19:29.097Z,5.72
2023-05-25T13:21:56.935Z,6.20
2023-05-25T13:24:24.725Z,5.65
2023-05-25T13:26:52.154Z,6.05
2023-05-25T13:29:21.683Z,6.15
2023-05-25T13:31:49.223Z,5.93
2023-05-25T13:34:17.730Z,6.12
2023-05-25T13:36:45.490Z,6.03
2023-05-25T13:39:13.863Z,5.10
2023-05-25T13:41:41.819Z,6.12
2023-05-25T13:44:11.189Z,6.25
2023-05-25T13:46:39.006Z,5.70
2023-05-25T13:49:06.602Z,5.47
2023-05-25T13:51:35.774Z,5.28
2023-05-25T13:54:03.336Z,5.50
2023-05-25T13:56:31.296Z,5.70
2023-05-25T13:58:58.982Z,6.25
2023-05-25T14:01:30.549Z,5.05
2023-05-25T14:03:59.928Z,6.18
2023-05-25T14:06:27.576Z,5.82
2023-05-25T14:08:55.015Z,6.37
2023-05-25T14:11:28.141Z,5.40
2023-05-25T14:13:56.297Z,6.07
2023-05-25T14:16:24.035Z,5.95
2023-05-25T14:18:51.580Z,5.68
2023-05-25T14:21:19.219Z,6.00
2023-05-25T14:23:46.965Z,5.82
2023-05-25T14:26:14.418Z,6.10
2023-05-25T14:28:42.294Z,5.28
2023-05-25T14:31:10.155Z,5.95
2023-05-25T14:33:37.684Z,5.28
2023-05-25T14:36:05.735Z,5.75
2023-05-25T14:38:33.426Z,5.05
2023-05-25T14:41:01.401Z,5.62
2023-05-25T14:43:28.920Z,5.55
2023-05-25T14:45:56.671Z,5.22
2023-05-25T14:48:25.935Z,5.72
2023-05-25T14:50:53.560Z,5.80
2023-05-25T14:53:21.338Z,5.50
2023-05-25T14:55:49.212Z,5.37
2023-05-25T14:58:16.699Z,6.10
2023-05-25T15:00:44.850Z,6.05
2023-05-25T15:03:12.373Z,5.47
2023-05-25T15:05:39.979Z,5.10
2023-05-25T15:08:07.854Z,5.20
2023-05-25T15:10:35.686Z,5.62
2023-05-25T15:13:03.276Z,5.07
2023-05-25T15:15:31.264Z,5.53
2023-05-25T15:17:58.897Z,5.53
2023-05-25T15:20:26.553Z,5.50
2023-05-25T15:22:55.060Z,5.50
2023-05-25T15:25:34.874Z,5.22
2023-05-25T15:28:03.933Z,5.43
2023-05-25T15:30:51.429Z,5.30
2023-05-25T15:33:19.442Z,5.57
2023-05-25T15:35:47.202Z,5.40
2023-05-25T15:38:15.308Z,5.55
2023-05-25T15:40:43.367Z,4.65
2023-05-25T15:43:11.000Z,4.75
2023-05-25T15:45:38.506Z,5.00
2023-05-25T15:48:10.209Z,5.72
2023-05-25T15:50:39.565Z,5.57
2023-05-25T15:53:07.360Z,5.62
2023-05-25T15:55:34.812Z,5.35
2023-05-25T15:58:02.271Z,5.25
2023-05-25T16:00:30.057Z,6.43
2023-05-25T16:02:58.287Z,5.35
2023-05-25T16:05:25.853Z,5.32
2023-05-25T16:07:53.279Z,5.72
2023-05-25T16:10:21.039Z,4.97
2023-05-25T16:12:48.576Z,4.90
2023-05-25T16:15:16.541Z,5.62
2023-05-25T16:17:44.278Z,5.40
2023-05-25T16:20:12.209Z,5.15
2023-05-25T16:22:39.711Z,5.43
2023-05-25T16:25:07.889Z,5.12
2023-05-25T16:27:35.454Z,4.97
2023-05-25T16:30:03.039Z,5.22
2023-05-25T16:32:31.117Z,5.78
2023-05-25T16:34:58.606Z,5.25
2023-05-25T16:37:26.108Z,5.47
2023-05-25T16:39:55.409Z,5.68
2023-05-25T16:42:25.062Z,5.27
2023-05-25T16:44:52.486Z,5.43
2023-05-25T16:47:20.411Z,5.85
2023-05-25T16:49:47.877Z,5.05
2023-05-25T16:52:15.470Z,5.72
2023-05-25T16:54:43.274Z,5.95
2023-05-25T16:57:12.092Z,6.03
2023-05-25T16:59:39.828Z,6.45
2023-05-25T17:02:07.655Z,6.28
2023-05-25T17:04:35.121Z,5.28
2023-05-25T17:07:02.629Z,5.12
2023-05-25T17:09:30.364Z,5.30
2023-05-25T17:11:59.680Z,5.87
2023-05-25T17:14:27.482Z,5.57
2023-05-25T17:16:55.378Z,5.80
2023-05-25T17:19:22.892Z,5.53
2023-05-25T17:21:50.553Z,6.07
2023-05-25T17:24:18.280Z,6.03
2023-05-25T17:26:46.570Z,5.85
2023-05-25T17:29:15.299Z,5.18
2023-05-25T17:31:43.121Z,5.70
2023-05-25T17:34:10.568Z,6.25
2023-05-25T17:36:38.013Z,6.12
2023-05-25T17:39:06.026Z,6.37
2023-05-25T17:41:33.511Z,5.57
2023-05-25T17:44:01.026Z,5.80
2023-05-25T17:46:29.025Z,5.25
2023-05-25T17:48:56.833Z,4.75
2023-05-25T17:51:24.300Z,5.50
2023-05-25T17:53:51.977Z,5.60
2023-05-25T17:56:19.406Z,5.82
2023-05-25T17:58:47.926Z,5.95
2023-05-25T18:01:16.002Z,5.65
2023-05-25T18:03:43.947Z,6.20
2023-05-25T18:06:11.523Z,5.68
2023-05-25T18:08:38.963Z,6.35
2023-05-25T18:11:06.730Z,5.60
2023-05-25T18:13:34.209Z,5.87
2023-05-25T18:16:01.701Z,6.57
2023-05-25T18:18:31.789Z,6.35
2023-05-25T18:20:59.439Z,5.93
2023-05-25T18:23:26.954Z,5.78
2023-05-25T18:25:54.930Z,6.28
2023-05-25T18:28:23.554Z,5.75
2023-05-25T18:30:51.075Z,5.65
2023-05-25T18:33:18.882Z,5.85
2023-05-25T18:35:46.758Z,5.90
2023-05-25T18:38:14.334Z,6.10
2023-05-25T18:40:42.128Z,5.60
2023-05-25T18:43:09.863Z,5.45
2023-05-25T18:45:37.348Z,5.82
2023-05-25T18:48:07.598Z,5.57
2023-05-25T18:50:37.651Z,5.87
2023-05-25T18:53:09.901Z,5.70
2023-05-25T18:55:37.721Z,5.70
2023-05-25T18:58:06.523Z,5.62
2023-05-25T19:00:34.081Z,5.12
2023-05-25T19:03:01.702Z,6.00
2023-05-25T19:05:29.538Z,6.05
2023-05-25T19:07:59.543Z,5.68
2023-05-25T19:10:27.655Z,5.78
2023-05-25T19:12:55.570Z,5.80
2023-05-25T19:15:23.078Z,5.93
2023-05-25T19:17:50.799Z,6.00
2023-05-25T19:20:18.830Z,5.82
2023-05-25T19:22:46.446Z,5.57
2023-05-25T19:25:14.587Z,6.30
2023-05-25T19:27:42.456Z,5.78
2023-05-25T19:30:10.192Z,5.80
2023-05-25T19:32:37.716Z,6.00
2023-05-25T19:35:05.895Z,5.95
2023-05-25T19:37:33.402Z,5.53
2023-05-25T19:40:00.860Z,6.30
2023-05-25T19:42:28.756Z,5.82
2023-05-25T19:44:56.255Z,6.35
2023-05-25T19:47:23.745Z,5.78
2023-05-25T19:49:52.029Z,5.78
2023-05-25T19:52:19.468Z,5.70
2023-05-25T19:54:46.955Z,5.85
2023-05-25T19:57:14.752Z,5.43
2023-05-25T19:59:42.484Z,5.97
2023-05-25T20:02:09.965Z,5.90
2023-05-25T20:04:41.046Z,6.28
2023-05-25T20:07:08.780Z,6.07
2023-05-25T20:09:38.541Z,5.72
2023-05-25T20:12:06.785Z,5.87
2023-05-25T20:14:34.337Z,6.25
2023-05-25T20:17:01.858Z,6.45
2023-05-25T20:19:29.749Z,6.75
2023-05-25T20:21:58.021Z,6.15
2023-05-25T20:24:25.633Z,5.68
2023-05-25T20:26:56.767Z,6.28
2023-05-25T20:29:25.131Z,6.70
2023-05-25T20:31:56.592Z,6.47
2023-05-25T20:34:24.177Z,6.25
2023-05-25T20:36:51.742Z,5.53
2023-05-25T20:39:19.660Z,6.43
2023-05-25T20:41:47.097Z,5.85
2023-05-25T20:44:17.966Z,6.50
2023-05-25T20:46:45.919Z,6.60
2023-05-25T20:49:13.828Z,5.93
2023-05-25T20:51:42.148Z,6.03
2023-05-25T20:54:09.966Z,6.18
2023-05-25T20:56:37.456Z,6.12
2023-05-25T20:59:04.918Z,6.57
2023-05-25T21:01:32.714Z,6.15
2023-05-25T21:04:00.425Z,6.47
2023-05-25T21:06:28.039Z,6.10
2023-05-25T21:08:55.816Z,6.05
2023-05-25T21:11:23.441Z,6.85
2023-05-25T21:13:51.337Z,5.85
2023-05-25T21:16:19.117Z,5.60
2023-05-25T21:18:46.673Z,5.30
2023-05-25T21:21:15.834Z,7.07
2023-05-25T21:23:43.553Z,6.32
2023-05-25T21:26:11.024Z,6.18
2023-05-25T21:28:38.464Z,5.85
2023-05-25T21:31:06.235Z,6.32
2023-05-25T21:33:36.090Z,5.82
2023-05-25T21:36:04.004Z,5.97
2023-05-25T21:38:31.790Z,6.25
2023-05-25T21:40:59.288Z,5.97
2023-05-25T21:43:27.435Z,6.12
2023-05-25T21:45:55.353Z,6.28
2023-05-25T21:48:22.779Z,5.97
2023-05-25T21:50:53.324Z,6.30
2023-05-25T21:53:21.121Z,6.30
2023-05-25T21:55:48.575Z,6.18
2023-05-25T21:58:17.445Z,6.25
2023-05-25T22:00:45.416Z,6.25
2023-05-25T22:03:13.538Z,6.07
2023-05-25T22:05:41.062Z,6.12
2023-05-25T22:08:09.021Z,6.65
2023-05-25T22:10:36.931Z,5.53
2023-05-25T22:13:05.181Z,5.68
2023-05-25T22:15:32.882Z,5.97
2023-05-25T22:18:01.482Z,5.70
2023-05-25T22:20:29.166Z,5.80
2023-05-25T22:22:56.870Z,5.70
2023-05-25T22:25:25.213Z,5.62
2023-05-25T22:27:52.679Z,6.50
2023-05-25T22:30:20.384Z,6.45
2023-05-25T22:32:48.260Z,6.37
2023-05-25T22:35:17.022Z,5.90
2023-05-25T22:37:44.590Z,6.55
2023-05-25T22:40:12.705Z,6.55
2023-05-25T22:42:40.344Z,6.35
2023-05-25T22:45:08.283Z,5.90
2023-05-25T22:47:36.628Z,6.00
2023-05-25T22:50:04.188Z,6.50
2023-05-25T22:52:31.672Z,6.53
2023-05-25T22:54:59.375Z,6.32
2023-05-25T22:57:26.823Z,6.12
2023-05-25T22:59:54.250Z,6.20
2023-05-25T23:02:21.946Z,6.43
2023-05-25T23:04:49.459Z,6.60
2023-05-25T23:07:16.947Z,5.85
2023-05-25T23:09:44.694Z,6.18
2023-05-25T23:12:12.125Z,6.00
2023-05-25T23:14:39.539Z,6.10
2023-05-25T23:17:07.232Z,6.90
2023-05-25T23:19:35.733Z,5.82
2023-05-25T23:22:03.215Z,6.22
2023-05-25T23:24:30.972Z,6.15
2023-05-25T23:26:58.426Z,5.65
2023-05-25T23:29:25.966Z,6.68
2023-05-25T23:31:53.744Z,6.72
2023-05-25T23:34:21.443Z,6.62
2023-05-25T23:36:48.897Z,6.07
2023-05-25T23:39:16.627Z,6.70
2023-05-25T23:41:44.072Z,6.50
2023-05-25T23:44:11.555Z,6.25
2023-05-25T23:46:39.321Z,6.20
2023-05-25T23:49:06.812Z,6.60
2023-05-25T23:51:34.240Z,6.12
2023-05-25T23:54:01.962Z,6.10
2023-05-25T23:56:29.428Z,6.18
2023-05-25T23:58:57.040Z,6.00
